sensor_id;sensor_type;location;lat;lon;timestamp;pressure;altitude;pressure_sealevel;temperature;humidity
51147;BME280;37207;53.060;18.726;2023-03-02T00:01:44;101764.95;;;0.87;84.85
51147;BME280;37207;53.060;18.726;2023-03-02T00:04:16;101765.02;;;0.88;84.81
51147;BME280;37207;53.060;18.726;2023-03-02T00:06:42;101769.14;;;0.88;85.09
51147;BME280;37207;53.060;18.726;2023-03-02T00:09:08;101768.59;;;0.89;85.07
51147;BME280;37207;53.060;18.726;2023-03-02T00:11:35;101771.23;;;0.91;85.28
51147;BME280;37207;53.060;18.726;2023-03-02T00:14:04;101770.23;;;0.93;85.32
51147;BME280;37207;53.060;18.726;2023-03-02T00:16:30;101767.81;;;0.97;85.36
51147;BME280;37207;53.060;18.726;2023-03-02T00:18:56;101766.34;;;1.01;85.64
51147;BME280;37207;53.060;18.726;2023-03-02T00:21:22;101768.18;;;1.04;85.72
51147;BME280;37207;53.060;18.726;2023-03-02T00:23:50;101761.27;;;1.09;85.60
51147;BME280;37207;53.060;18.726;2023-03-02T00:26:16;101761.64;;;1.15;85.73
51147;BME280;37207;53.060;18.726;2023-03-02T00:28:43;101759.31;;;1.19;85.79
51147;BME280;37207;53.060;18.726;2023-03-02T00:31:09;101762.23;;;1.23;85.77
51147;BME280;37207;53.060;18.726;2023-03-02T00:33:35;101759.73;;;1.27;85.90
51147;BME280;37207;53.060;18.726;2023-03-02T00:36:02;101760.11;;;1.34;85.77
51147;BME280;37207;53.060;18.726;2023-03-02T00:38:28;101758.38;;;1.39;85.91
51147;BME280;37207;53.060;18.726;2023-03-02T00:40:54;101754.77;;;1.44;85.95
51147;BME280;37207;53.060;18.726;2023-03-02T00:43:21;101750.41;;;1.50;85.83
51147;BME280;37207;53.060;18.726;2023-03-02T00:45:53;101748.07;;;1.54;85.64
51147;BME280;37207;53.060;18.726;2023-03-02T00:48:19;101745.34;;;1.53;85.54
51147;BME280;37207;53.060;18.726;2023-03-02T00:50:44;101743.46;;;1.55;85.42
51147;BME280;37207;53.060;18.726;2023-03-02T00:53:10;101737.77;;;1.57;85.33
51147;BME280;37207;53.060;18.726;2023-03-02T00:55:37;101731.14;;;1.58;85.31
51147;BME280;37207;53.060;18.726;2023-03-02T00:58:04;101721.79;;;1.61;85.18
51147;BME280;37207;53.060;18.726;2023-03-02T01:00:31;101718.84;;;1.61;84.84
51147;BME280;37207;53.060;18.726;2023-03-02T01:03:02;101717.06;;;1.57;84.55
51147;BME280;37207;53.060;18.726;2023-03-02T01:05:28;101718.38;;;1.57;84.68
51147;BME280;37207;53.060;18.726;2023-03-02T01:07:54;101721.58;;;1.58;84.55
51147;BME280;37207;53.060;18.726;2023-03-02T01:10:20;101723.45;;;1.57;84.58
51147;BME280;37207;53.060;18.726;2023-03-02T01:12:45;101720.32;;;1.58;84.86
51147;BME280;37207;53.060;18.726;2023-03-02T01:15:11;101717.89;;;1.64;85.01
51147;BME280;37207;53.060;18.726;2023-03-02T01:17:37;101717.58;;;1.67;84.95
51147;BME280;37207;53.060;18.726;2023-03-02T01:20:05;101714.73;;;1.73;85.08
51147;BME280;37207;53.060;18.726;2023-03-02T01:22:33;101717.20;;;1.79;85.01
51147;BME280;37207;53.060;18.726;2023-03-02T01:24:59;101714.30;;;1.83;84.99
51147;BME280;37207;53.060;18.726;2023-03-02T01:27:25;101713.75;;;1.84;84.79
51147;BME280;37207;53.060;18.726;2023-03-02T01:29:50;101712.90;;;1.79;84.28
51147;BME280;37207;53.060;18.726;2023-03-02T01:32:16;101710.61;;;1.73;84.25
51147;BME280;37207;53.060;18.726;2023-03-02T01:34:42;101710.48;;;1.69;84.43
51147;BME280;37207;53.060;18.726;2023-03-02T01:37:08;101705.35;;;1.70;84.56
51147;BME280;37207;53.060;18.726;2023-03-02T01:39:34;101703.27;;;1.74;84.97
51147;BME280;37207;53.060;18.726;2023-03-02T01:42:00;101700.02;;;1.75;84.76
51147;BME280;37207;53.060;18.726;2023-03-02T01:44:48;101699.77;;;1.73;84.52
51147;BME280;37207;53.060;18.726;2023-03-02T01:47:27;101700.52;;;1.71;84.42
51147;BME280;37207;53.060;18.726;2023-03-02T01:50:18;101697.64;;;1.71;84.51
51147;BME280;37207;53.060;18.726;2023-03-02T01:52:46;101696.95;;;1.68;84.60
51147;BME280;37207;53.060;18.726;2023-03-02T01:55:16;101693.05;;;1.68;84.71
51147;BME280;37207;53.060;18.726;2023-03-02T01:57:47;101693.21;;;1.68;84.68
51147;BME280;37207;53.060;18.726;2023-03-02T02:00:21;101689.01;;;1.69;85.01
51147;BME280;37207;53.060;18.726;2023-03-02T02:02:48;101690.48;;;1.69;85.19
51147;BME280;37207;53.060;18.726;2023-03-02T02:05:18;101689.95;;;1.67;84.99
51147;BME280;37207;53.060;18.726;2023-03-02T02:07:46;101691.52;;;1.63;85.01
51147;BME280;37207;53.060;18.726;2023-03-02T02:10:12;101686.70;;;1.60;84.86
51147;BME280;37207;53.060;18.726;2023-03-02T02:12:39;101686.40;;;1.58;85.26
51147;BME280;37207;53.060;18.726;2023-03-02T02:15:05;101687.07;;;1.54;85.42
51147;BME280;37207;53.060;18.726;2023-03-02T02:17:31;101683.11;;;1.50;85.15
51147;BME280;37207;53.060;18.726;2023-03-02T02:25:10;101681.17;;;1.48;85.52
51147;BME280;37207;53.060;18.726;2023-03-02T02:27:42;101684.66;;;1.51;85.69
51147;BME280;37207;53.060;18.726;2023-03-02T02:30:10;101683.89;;;1.52;85.66
51147;BME280;37207;53.060;18.726;2023-03-02T02:32:38;101683.41;;;1.51;85.57
51147;BME280;37207;53.060;18.726;2023-03-02T02:35:25;101684.05;;;1.48;85.57
51147;BME280;37207;53.060;18.726;2023-03-02T02:38:01;101678.39;;;1.43;85.45
51147;BME280;37207;53.060;18.726;2023-03-02T02:40:50;101678.48;;;1.40;85.40
51147;BME280;37207;53.060;18.726;2023-03-02T02:43:20;101675.23;;;1.38;85.49
51147;BME280;37207;53.060;18.726;2023-03-02T02:45:51;101678.13;;;1.36;85.48
51147;BME280;37207;53.060;18.726;2023-03-02T02:48:20;101679.61;;;1.34;85.42
51147;BME280;37207;53.060;18.726;2023-03-02T02:50:48;101680.87;;;1.33;85.51
51147;BME280;37207;53.060;18.726;2023-03-02T02:53:59;101673.16;;;1.31;85.75
51147;BME280;37207;53.060;18.726;2023-03-02T02:56:33;101673.48;;;1.29;85.50
51147;BME280;37207;53.060;18.726;2023-03-02T02:59:06;101673.48;;;1.30;85.78
51147;BME280;37207;53.060;18.726;2023-03-02T03:01:33;101670.05;;;1.31;85.81
51147;BME280;37207;53.060;18.726;2023-03-02T03:04:02;101676.66;;;1.32;85.92
51147;BME280;37207;53.060;18.726;2023-03-02T03:06:29;101679.61;;;1.32;85.76
51147;BME280;37207;53.060;18.726;2023-03-02T03:09:09;101679.38;;;1.33;86.09
51147;BME280;37207;53.060;18.726;2023-03-02T03:11:49;101679.53;;;1.34;86.15
51147;BME280;37207;53.060;18.726;2023-03-02T03:14:24;101681.31;;;1.35;86.12
51147;BME280;37207;53.060;18.726;2023-03-02T03:16:52;101678.75;;;1.34;86.08
51147;BME280;37207;53.060;18.726;2023-03-02T03:19:27;101675.80;;;1.35;86.04
51147;BME280;37207;53.060;18.726;2023-03-02T03:21:56;101668.46;;;1.38;85.86
51147;BME280;37207;53.060;18.726;2023-03-02T03:24:24;101664.15;;;1.42;86.14
51147;BME280;37207;53.060;18.726;2023-03-02T03:26:51;101663.29;;;1.45;86.17
51147;BME280;37207;53.060;18.726;2023-03-02T03:29:21;101663.29;;;1.46;86.07
51147;BME280;37207;53.060;18.726;2023-03-02T03:31:51;101662.28;;;1.46;85.87
51147;BME280;37207;53.060;18.726;2023-03-02T03:34:18;101666.55;;;1.47;85.99
51147;BME280;37207;53.060;18.726;2023-03-02T03:53:22;101665.10;;;1.94;85.10
51147;BME280;37207;53.060;18.726;2023-03-02T03:55:48;101662.02;;;1.97;84.67
51147;BME280;37207;53.060;18.726;2023-03-02T03:58:16;101658.49;;;1.91;84.54
51147;BME280;37207;53.060;18.726;2023-03-02T04:00:42;101662.89;;;1.87;84.52
51147;BME280;37207;53.060;18.726;2023-03-02T04:03:09;101665.20;;;1.79;84.53
51147;BME280;37207;53.060;18.726;2023-03-02T04:05:36;101673.42;;;1.71;84.59
51147;BME280;37207;53.060;18.726;2023-03-02T04:08:04;101674.92;;;1.68;84.61
51147;BME280;37207;53.060;18.726;2023-03-02T04:10:31;101674.09;;;1.63;84.44
51147;BME280;37207;53.060;18.726;2023-03-02T04:12:58;101674.41;;;1.58;84.45
51147;BME280;37207;53.060;18.726;2023-03-02T04:15:25;101672.73;;;1.55;84.48
51147;BME280;37207;53.060;18.726;2023-03-02T04:17:52;101672.13;;;1.54;84.67
51147;BME280;37207;53.060;18.726;2023-03-02T04:20:21;101678.20;;;1.55;84.75
51147;BME280;37207;53.060;18.726;2023-03-02T04:22:52;101681.38;;;1.54;84.75
51147;BME280;37207;53.060;18.726;2023-03-02T04:25:21;101680.15;;;1.52;84.44
51147;BME280;37207;53.060;18.726;2023-03-02T04:27:51;101677.52;;;1.48;84.50
51147;BME280;37207;53.060;18.726;2023-03-02T04:30:22;101674.02;;;1.46;84.47
51147;BME280;37207;53.060;18.726;2023-03-02T04:32:49;101677.52;;;1.47;84.54
51147;BME280;37207;53.060;18.726;2023-03-02T04:35:16;101674.02;;;1.46;84.36
51147;BME280;37207;53.060;18.726;2023-03-02T04:37:43;101675.13;;;1.43;84.53
51147;BME280;37207;53.060;18.726;2023-03-02T04:40:13;101672.56;;;1.40;84.24
51147;BME280;37207;53.060;18.726;2023-03-02T04:42:40;101670.42;;;1.37;84.18
51147;BME280;37207;53.060;18.726;2023-03-02T04:45:07;101667.79;;;1.35;84.03
51147;BME280;37207;53.060;18.726;2023-03-02T04:47:34;101662.50;;;1.32;84.02
51147;BME280;37207;53.060;18.726;2023-03-02T04:50:00;101668.36;;;1.28;83.94
51147;BME280;37207;53.060;18.726;2023-03-02T04:52:27;101662.15;;;1.22;83.67
51147;BME280;37207;53.060;18.726;2023-03-02T04:54:53;101661.48;;;1.17;83.58
51147;BME280;37207;53.060;18.726;2023-03-02T04:57:20;101661.48;;;1.15;83.76
51147;BME280;37207;53.060;18.726;2023-03-02T04:59:46;101661.80;;;1.15;83.88
51147;BME280;37207;53.060;18.726;2023-03-02T05:02:13;101667.48;;;1.17;83.99
51147;BME280;37207;53.060;18.726;2023-03-02T05:04:39;101671.98;;;1.19;84.12
51147;BME280;37207;53.060;18.726;2023-03-02T05:07:07;101675.64;;;1.20;84.07
51147;BME280;37207;53.060;18.726;2023-03-02T05:09:34;101675.39;;;1.19;83.97
51147;BME280;37207;53.060;18.726;2023-03-02T05:12:01;101672.21;;;1.17;83.93
51147;BME280;37207;53.060;18.726;2023-03-02T05:14:29;101672.61;;;1.14;83.90
51147;BME280;37207;53.060;18.726;2023-03-02T05:16:56;101676.97;;;1.10;83.90
51147;BME280;37207;53.060;18.726;2023-03-02T05:19:23;101682.65;;;1.08;83.66
51147;BME280;37207;53.060;18.726;2023-03-02T05:21:50;101690.98;;;1.05;83.30
51147;BME280;37207;53.060;18.726;2023-03-02T05:24:17;101689.45;;;1.01;83.21
51147;BME280;37207;53.060;18.726;2023-03-02T05:26:44;101690.63;;;1.00;83.26
51147;BME280;37207;53.060;18.726;2023-03-02T05:29:10;101689.46;;;1.00;83.22
51147;BME280;37207;53.060;18.726;2023-03-02T05:31:40;101694.52;;;1.01;83.49
51147;BME280;37207;53.060;18.726;2023-03-02T05:34:10;101696.37;;;1.03;83.50
51147;BME280;37207;53.060;18.726;2023-03-02T05:36:37;101697.27;;;1.06;83.28
51147;BME280;37207;53.060;18.726;2023-03-02T05:39:05;101700.16;;;1.06;83.27
51147;BME280;37207;53.060;18.726;2023-03-02T05:41:32;101696.88;;;1.07;83.14
51147;BME280;37207;53.060;18.726;2023-03-02T05:43:58;101694.16;;;1.07;83.04
51147;BME280;37207;53.060;18.726;2023-03-02T05:46:25;101693.54;;;1.06;82.96
51147;BME280;37207;53.060;18.726;2023-03-02T05:48:52;101699.36;;;1.08;82.95
51147;BME280;37207;53.060;18.726;2023-03-02T05:51:19;101704.89;;;1.11;82.95
51147;BME280;37207;53.060;18.726;2023-03-02T05:53:45;101700.91;;;1.14;82.92
51147;BME280;37207;53.060;18.726;2023-03-02T05:56:12;101700.05;;;1.17;82.84
51147;BME280;37207;53.060;18.726;2023-03-02T05:58:39;101698.34;;;1.19;82.83
51147;BME280;37207;53.060;18.726;2023-03-02T06:01:09;101698.23;;;1.22;82.68
51147;BME280;37207;53.060;18.726;2023-03-02T06:03:36;101694.80;;;1.24;82.69
51147;BME280;37207;53.060;18.726;2023-03-02T06:06:03;101698.14;;;1.24;82.61
51147;BME280;37207;53.060;18.726;2023-03-02T06:08:30;101688.58;;;1.25;82.32
51147;BME280;37207;53.060;18.726;2023-03-02T06:10:57;101689.04;;;1.28;82.71
51147;BME280;37207;53.060;18.726;2023-03-02T06:13:23;101686.94;;;1.30;82.41
51147;BME280;37207;53.060;18.726;2023-03-02T06:15:50;101687.70;;;1.33;82.22
51147;BME280;37207;53.060;18.726;2023-03-02T06:18:16;101687.23;;;1.36;82.45
51147;BME280;37207;53.060;18.726;2023-03-02T06:20:43;101688.12;;;1.41;82.52
51147;BME280;37207;53.060;18.726;2023-03-02T06:23:10;101687.64;;;1.46;82.40
51147;BME280;37207;53.060;18.726;2023-03-02T06:25:37;101691.28;;;1.49;82.36
51147;BME280;37207;53.060;18.726;2023-03-02T06:28:06;101692.20;;;1.55;82.32
51147;BME280;37207;53.060;18.726;2023-03-02T06:30:33;101694.41;;;1.59;82.35
51147;BME280;37207;53.060;18.726;2023-03-02T06:32:59;101688.86;;;1.65;82.11
51147;BME280;37207;53.060;18.726;2023-03-02T06:35:26;101689.88;;;1.65;81.59
51147;BME280;37207;53.060;18.726;2023-03-02T06:37:54;101691.04;;;1.67;81.55
51147;BME280;37207;53.060;18.726;2023-03-02T06:40:20;101691.10;;;1.71;81.72
51147;BME280;37207;53.060;18.726;2023-03-02T06:42:47;101692.84;;;1.78;81.83
51147;BME280;37207;53.060;18.726;2023-03-02T06:45:14;101694.04;;;1.86;81.92
51147;BME280;37207;53.060;18.726;2023-03-02T06:47:40;101693.60;;;1.92;81.81
51147;BME280;37207;53.060;18.726;2023-03-02T06:50:08;101693.02;;;1.99;81.53
51147;BME280;37207;53.060;18.726;2023-03-02T06:52:35;101690.27;;;2.03;81.04
51147;BME280;37207;53.060;18.726;2023-03-02T06:55:02;101692.64;;;2.08;81.08
51147;BME280;37207;53.060;18.726;2023-03-02T06:57:29;101698.97;;;2.15;81.03
51147;BME280;37207;53.060;18.726;2023-03-02T07:00:08;101696.19;;;2.23;81.03
51147;BME280;37207;53.060;18.726;2023-03-02T07:02:39;101693.92;;;2.31;80.88
51147;BME280;37207;53.060;18.726;2023-03-02T07:05:06;101692.89;;;2.45;81.00
51147;BME280;37207;53.060;18.726;2023-03-02T07:07:33;101700.20;;;2.56;80.44
51147;BME280;37207;53.060;18.726;2023-03-02T07:09:59;101698.55;;;2.65;80.27
51147;BME280;37207;53.060;18.726;2023-03-02T07:12:26;101700.04;;;2.81;80.31
51147;BME280;37207;53.060;18.726;2023-03-02T07:14:52;101701.66;;;2.97;79.93
51147;BME280;37207;53.060;18.726;2023-03-02T07:17:19;101703.80;;;3.15;79.81
51147;BME280;37207;53.060;18.726;2023-03-02T07:19:46;101704.00;;;3.31;79.31
51147;BME280;37207;53.060;18.726;2023-03-02T07:22:12;101706.94;;;3.52;79.11
51147;BME280;37207;53.060;18.726;2023-03-02T07:24:39;101706.70;;;3.64;77.92
51147;BME280;37207;53.060;18.726;2023-03-02T07:27:05;101705.27;;;3.72;77.69
51147;BME280;37207;53.060;18.726;2023-03-02T07:29:32;101705.05;;;3.93;77.36
51147;BME280;37207;53.060;18.726;2023-03-02T07:31:59;101706.65;;;4.12;76.92
51147;BME280;37207;53.060;18.726;2023-03-02T07:34:26;101706.18;;;4.41;76.66
51147;BME280;37207;53.060;18.726;2023-03-02T07:36:53;101710.71;;;5.15;76.34
51147;BME280;37207;53.060;18.726;2023-03-02T07:39:20;101709.54;;;5.76;75.62
51147;BME280;37207;53.060;18.726;2023-03-02T07:41:46;101702.78;;;5.95;74.19
51147;BME280;37207;53.060;18.726;2023-03-02T07:44:13;101702.00;;;6.41;73.89
51147;BME280;37207;53.060;18.726;2023-03-02T07:46:40;101698.63;;;7.27;72.15
51147;BME280;37207;53.060;18.726;2023-03-02T07:49:06;101698.44;;;7.37;70.44
51147;BME280;37207;53.060;18.726;2023-03-02T07:51:33;101696.77;;;7.61;69.71
51147;BME280;37207;53.060;18.726;2023-03-02T07:53:59;101696.67;;;8.46;68.70
51147;BME280;37207;53.060;18.726;2023-03-02T07:56:28;101693.95;;;8.41;67.42
51147;BME280;37207;53.060;18.726;2023-03-02T07:58:55;101696.55;;;9.32;67.37
51147;BME280;37207;53.060;18.726;2023-03-02T08:01:21;101689.02;;;11.50;65.55
51147;BME280;37207;53.060;18.726;2023-03-02T08:03:48;101689.04;;;13.49;61.35
51147;BME280;37207;53.060;18.726;2023-03-02T08:06:15;101690.01;;;14.43;59.88
51147;BME280;37207;53.060;18.726;2023-03-02T08:08:41;101684.64;;;14.85;58.23
51147;BME280;37207;53.060;18.726;2023-03-02T08:11:11;101689.05;;;16.54;57.15
51147;BME280;37207;53.060;18.726;2023-03-02T08:13:38;101691.38;;;18.24;54.16
51147;BME280;37207;53.060;18.726;2023-03-02T08:16:08;101690.64;;;19.35;50.52
51147;BME280;37207;53.060;18.726;2023-03-02T08:18:36;101684.46;;;20.42;49.90
51147;BME280;37207;53.060;18.726;2023-03-02T08:21:08;101684.80;;;21.17;48.51
51147;BME280;37207;53.060;18.726;2023-03-02T08:23:36;101693.90;;;21.07;46.32
51147;BME280;37207;53.060;18.726;2023-03-02T08:26:02;101693.05;;;19.43;45.62
51147;BME280;37207;53.060;18.726;2023-03-02T08:28:29;101686.89;;;17.94;45.77
51147;BME280;37207;53.060;18.726;2023-03-02T08:30:57;101683.62;;;16.46;45.28
51147;BME280;37207;53.060;18.726;2023-03-02T08:33:24;101687.01;;;14.99;45.62
51147;BME280;37207;53.060;18.726;2023-03-02T08:36:03;101689.10;;;13.70;47.19
51147;BME280;37207;53.060;18.726;2023-03-02T08:38:31;101684.64;;;12.46;48.54
51147;BME280;37207;53.060;18.726;2023-03-02T08:40:58;101685.08;;;11.58;49.79
51147;BME280;37207;53.060;18.726;2023-03-02T08:43:27;101686.20;;;10.85;50.77
51147;BME280;37207;53.060;18.726;2023-03-02T08:45:55;101687.20;;;10.22;51.58
51147;BME280;37207;53.060;18.726;2023-03-02T08:48:25;101687.44;;;9.66;52.56
51147;BME280;37207;53.060;18.726;2023-03-02T08:50:56;101685.27;;;9.23;53.45
51147;BME280;37207;53.060;18.726;2023-03-02T08:53:23;101681.98;;;8.81;53.52
51147;BME280;37207;53.060;18.726;2023-03-02T08:55:50;101681.22;;;8.38;54.50
51147;BME280;37207;53.060;18.726;2023-03-02T08:58:17;101676.73;;;8.11;55.47
51147;BME280;37207;53.060;18.726;2023-03-02T09:00:44;101673.66;;;7.87;55.91
51147;BME280;37207;53.060;18.726;2023-03-02T09:03:10;101676.16;;;7.64;56.13
51147;BME280;37207;53.060;18.726;2023-03-02T09:05:37;101671.54;;;7.40;56.22
51147;BME280;37207;53.060;18.726;2023-03-02T09:08:04;101662.70;;;7.39;55.97
51147;BME280;37207;53.060;18.726;2023-03-02T09:10:30;101661.13;;;8.15;55.19
51147;BME280;37207;53.060;18.726;2023-03-02T09:12:57;101658.05;;;9.92;53.03
51147;BME280;37207;53.060;18.726;2023-03-02T09:15:24;101653.81;;;12.46;51.37
51147;BME280;37207;53.060;18.726;2023-03-02T09:17:50;101649.27;;;15.13;50.01
51147;BME280;37207;53.060;18.726;2023-03-02T09:20:17;101651.30;;;17.68;47.80
51147;BME280;37207;53.060;18.726;2023-03-02T09:22:43;101647.98;;;19.78;45.13
51147;BME280;37207;53.060;18.726;2023-03-02T09:25:14;101646.81;;;21.66;43.14
51147;BME280;37207;53.060;18.726;2023-03-02T09:27:41;101645.66;;;23.28;42.16
51147;BME280;37207;53.060;18.726;2023-03-02T09:30:08;101642.61;;;24.69;40.29
51147;BME280;37207;53.060;18.726;2023-03-02T09:32:35;101640.66;;;25.11;37.38
51147;BME280;37207;53.060;18.726;2023-03-02T09:35:02;101637.98;;;25.48;37.68
51147;BME280;37207;53.060;18.726;2023-03-02T09:37:29;101643.56;;;24.49;35.68
51147;BME280;37207;53.060;18.726;2023-03-02T09:39:55;101640.37;;;22.63;37.65
51147;BME280;37207;53.060;18.726;2023-03-02T09:45:23;101632.79;;;21.66;36.24
51147;BME280;37207;53.060;18.726;2023-03-02T09:50:33;101637.58;;;18.97;38.66
51147;BME280;37207;53.060;18.726;2023-03-02T09:55:44;101635.90;;;19.08;39.60
51147;BME280;37207;53.060;18.726;2023-03-02T09:58:18;101632.24;;;20.83;38.75
51147;BME280;37207;53.060;18.726;2023-03-02T10:00:46;101629.07;;;22.30;36.72
51147;BME280;37207;53.060;18.726;2023-03-02T10:03:21;101625.27;;;23.22;35.16
51147;BME280;37207;53.060;18.726;2023-03-02T10:05:51;101626.01;;;23.70;34.54
51147;BME280;37207;53.060;18.726;2023-03-02T10:08:33;101620.69;;;23.85;34.83
51147;BME280;37207;53.060;18.726;2023-03-02T10:13:49;101620.11;;;22.29;36.33
51147;BME280;37207;53.060;18.726;2023-03-02T10:16:25;101618.86;;;21.09;37.18
51147;BME280;37207;53.060;18.726;2023-03-02T10:21:42;101619.59;;;18.81;37.86
51147;BME280;37207;53.060;18.726;2023-03-02T10:24:28;101616.71;;;17.92;37.64
51147;BME280;37207;53.060;18.726;2023-03-02T10:27:01;101613.73;;;16.92;37.87
51147;BME280;37207;53.060;18.726;2023-03-02T10:34:36;101615.86;;;15.05;40.55
51147;BME280;37207;53.060;18.726;2023-03-02T10:37:12;101611.14;;;14.72;41.32
51147;BME280;37207;53.060;18.726;2023-03-02T10:39:39;101607.52;;;14.39;42.28
51147;BME280;37207;53.060;18.726;2023-03-02T10:42:09;101612.54;;;14.23;43.26
51147;BME280;37207;53.060;18.726;2023-03-02T10:44:42;101609.08;;;14.10;43.84
51147;BME280;37207;53.060;18.726;2023-03-02T10:47:22;101608.55;;;14.00;44.33
51147;BME280;37207;53.060;18.726;2023-03-02T10:49:51;101607.80;;;13.86;42.97
51147;BME280;37207;53.060;18.726;2023-03-02T10:52:20;101606.49;;;13.73;44.08
51147;BME280;37207;53.060;18.726;2023-03-02T10:54:48;101603.73;;;13.74;44.12
51147;BME280;37207;53.060;18.726;2023-03-02T10:59:59;101590.39;;;13.90;44.48
51147;BME280;37207;53.060;18.726;2023-03-02T11:02:28;101585.48;;;14.05;44.83
51147;BME280;37207;53.060;18.726;2023-03-02T11:05:35;101583.79;;;14.31;45.07
51147;BME280;37207;53.060;18.726;2023-03-02T11:08:04;101579.43;;;14.77;45.68
51147;BME280;37207;53.060;18.726;2023-03-02T11:10:34;101575.90;;;15.40;45.43
51147;BME280;37207;53.060;18.726;2023-03-02T11:13:23;101577.91;;;15.90;43.96
51147;BME280;37207;53.060;18.726;2023-03-02T11:16:01;101574.65;;;16.60;42.94
51147;BME280;37207;53.060;18.726;2023-03-02T11:21:00;101571.58;;;18.07;40.94
51147;BME280;37207;53.060;18.726;2023-03-02T11:23:38;101567.78;;;18.93;39.71
51147;BME280;37207;53.060;18.726;2023-03-02T11:26:22;101568.77;;;19.49;36.77
51147;BME280;37207;53.060;18.726;2023-03-02T11:29:08;101571.77;;;19.56;36.79
51147;BME280;37207;53.060;18.726;2023-03-02T11:31:44;101563.33;;;19.10;37.50
51147;BME280;37207;53.060;18.726;2023-03-02T11:37:16;101563.35;;;18.79;37.38
51147;BME280;37207;53.060;18.726;2023-03-02T11:42:22;101558.04;;;20.71;34.90
51147;BME280;37207;53.060;18.726;2023-03-02T11:44:50;101552.34;;;21.20;32.72
51147;BME280;37207;53.060;18.726;2023-03-02T11:47:18;101549.25;;;21.66;34.03
51147;BME280;37207;53.060;18.726;2023-03-02T11:49:56;101553.18;;;22.15;31.97
51147;BME280;37207;53.060;18.726;2023-03-02T11:52:27;101550.98;;;22.12;31.76
51147;BME280;37207;53.060;18.726;2023-03-02T11:55:04;101549.67;;;22.04;32.73
51147;BME280;37207;53.060;18.726;2023-03-02T11:57:36;101551.55;;;22.36;32.53
51147;BME280;37207;53.060;18.726;2023-03-02T12:00:14;101546.58;;;22.76;31.12
51147;BME280;37207;53.060;18.726;2023-03-02T12:02:44;101548.67;;;22.43;30.00
51147;BME280;37207;53.060;18.726;2023-03-02T12:05:26;101548.08;;;22.24;31.28
51147;BME280;37207;53.060;18.726;2023-03-02T12:10:40;101532.42;;;22.15;32.56
51147;BME280;37207;53.060;18.726;2023-03-02T12:13:20;101530.52;;;20.91;32.20
51147;BME280;37207;53.060;18.726;2023-03-02T12:15:49;101527.13;;;19.68;33.52
51147;BME280;37207;53.060;18.726;2023-03-02T12:21:06;101521.98;;;18.32;36.01
51147;BME280;37207;53.060;18.726;2023-03-02T12:23:35;101519.61;;;18.03;36.03
51147;BME280;37207;53.060;18.726;2023-03-02T12:31:23;101511.27;;;18.54;35.78
51147;BME280;37207;53.060;18.726;2023-03-02T12:33:51;101509.89;;;18.64;35.88
51147;BME280;37207;53.060;18.726;2023-03-02T12:36:28;101509.11;;;18.74;35.24
51147;BME280;37207;53.060;18.726;2023-03-02T12:39:17;101508.48;;;18.45;35.66
51147;BME280;37207;53.060;18.726;2023-03-02T12:42:03;101507.83;;;18.37;36.23
51147;BME280;37207;53.060;18.726;2023-03-02T12:45:03;101504.91;;;18.04;36.09
51147;BME280;37207;53.060;18.726;2023-03-02T12:47:40;101502.50;;;17.53;37.03
51147;BME280;37207;53.060;18.726;2023-03-02T12:50:21;101499.48;;;17.17;36.39
51147;BME280;37207;53.060;18.726;2023-03-02T12:53:12;101497.52;;;16.67;36.93
51147;BME280;37207;53.060;18.726;2023-03-02T12:55:41;101491.45;;;16.01;37.13
51147;BME280;37207;53.060;18.726;2023-03-02T12:58:20;101488.23;;;15.85;37.34
51147;BME280;37207;53.060;18.726;2023-03-02T13:00:53;101479.80;;;15.34;38.57
51147;BME280;37207;53.060;18.726;2023-03-02T13:03:20;101478.94;;;14.88;39.52
51147;BME280;37207;53.060;18.726;2023-03-02T13:05:47;101476.17;;;14.65;39.94
51147;BME280;37207;53.060;18.726;2023-03-02T13:08:21;101473.63;;;14.45;40.88
51147;BME280;37207;53.060;18.726;2023-03-02T13:10:52;101476.16;;;14.13;41.21
51147;BME280;37207;53.060;18.726;2023-03-02T13:13:26;101471.64;;;13.92;41.61
51147;BME280;37207;53.060;18.726;2023-03-02T13:15:56;101467.23;;;13.69;42.20
51147;BME280;37207;53.060;18.726;2023-03-02T13:18:27;101459.60;;;13.64;42.83
51147;BME280;37207;53.060;18.726;2023-03-02T13:20:58;101455.06;;;13.61;43.21
51147;BME280;37207;53.060;18.726;2023-03-02T13:23:27;101451.06;;;13.56;43.62
51147;BME280;37207;53.060;18.726;2023-03-02T13:25:56;101451.80;;;13.50;44.00
51147;BME280;37207;53.060;18.726;2023-03-02T13:28:26;101449.52;;;13.42;44.38
51147;BME280;37207;53.060;18.726;2023-03-02T13:31:20;101445.98;;;13.37;44.08
51147;BME280;37207;53.060;18.726;2023-03-02T13:33:48;101453.15;;;13.23;44.42
51147;BME280;37207;53.060;18.726;2023-03-02T13:36:21;101452.67;;;13.33;44.92
51147;BME280;37207;53.060;18.726;2023-03-02T13:38:51;101446.88;;;13.40;44.85
51147;BME280;37207;53.060;18.726;2023-03-02T13:41:23;101443.12;;;13.51;44.90
51147;BME280;37207;53.060;18.726;2023-03-02T13:43:50;101440.73;;;13.66;45.27
51147;BME280;37207;53.060;18.726;2023-03-02T13:49:01;101437.16;;;13.72;44.34
51147;BME280;37207;53.060;18.726;2023-03-02T13:51:31;101434.75;;;13.67;44.86
51147;BME280;37207;53.060;18.726;2023-03-02T13:54:20;101434.67;;;13.75;44.99
51147;BME280;37207;53.060;18.726;2023-03-02T13:56:48;101425.77;;;13.74;44.88
51147;BME280;37207;53.060;18.726;2023-03-02T13:59:17;101424.69;;;13.84;44.75
51147;BME280;37207;53.060;18.726;2023-03-02T14:01:44;101424.54;;;13.85;44.45
51147;BME280;37207;53.060;18.726;2023-03-02T14:04:15;101417.63;;;13.72;44.31